Ana Sayfa
METAR-TAF:

METAR-TAF

Havaalanları :

Diyarbakır Havalimanı

Diyarbakır, Türkiye

Enlem: 37-53N, Boylam: 040-11E, yükseklik: 686 m

Güncel hava durumu gözlemi

Rapor saat 21:20 UTC de 21 dakika önce yapıldı.
Rüzgar kuzeydan 4 kt
Sıcaklık 19°C
Nem 56%
Basınç 1014 hPa
Görüş mesafesi 10 km veya daha fazla
1500 m altında bulut yok ve kümülonimbus yok

METAR: LTCC 262120Z 35004KT CAVOK 19/10 Q1014 NOSIG RMK RWY16 00000KT

Saat: 00:41 (21:41 UTC)

Tahmin

Rapor saat 16:40 UTC de 5 saat ve 1 dakika önce yapıldı.
Ayın 26'si saat 18 UTC'den ayın 27'si saat 18 UTC'ye kadar geçerli Tahmin
Rüzgar güney/güneybatıdan 7 kt
Görüş mesafesi 10 km veya daha fazla
4000 ft yükseklikte parçalı bulutlu
Dönüşüyor
ayın 26'si saat 18 UTC'den ayın 26'si saat 21 UTC'ye kadar
Görüş mesafesi 10 km veya daha fazla
1500 m altında bulut yok ve kümülonimbus yok

TAF: LTCC 261640Z 2618/2718 20007KT 9999 SCT040 BECMG 2618/2621 CAVOK

4.000'den fazla havaalanı için hava durumu gözlemleri ve tahminleri (METAR ve TAF raporları).

Kullanılabilir istasyonlar harita üzerinde sarı ve kırmızı noktalarla gösterilir.

İstasyonun adını görmek için fareyi noktanın üzerinde gezdirin.

Sonrasında hava gözlem ve tahminlerini görmek için tıklayın.

Haritayı değiştirmek için: yaklaştırmak için siyah artı işaretli yeşil düğmeye ve uzaklaştırmak için de eksi işaretli düğmeye hızla tıklayın; bitişik haritalar için yeşil okları kullanın.


METAR-TAF: